Time;durP1;ratioP1;P1;durP2;ratioP2;P2;SDS_P1;SDS_P2;PMS_P1;PMS_P2;Temp;Humidity;BMP_temperature;BMP_pressure;BME280_temperature;BME280_humidity;BME280_pressure;Samples;Min_cycle;Max_cycle;Signal;HPM_P1;HPM_P2
2020/12/03 00:01:14;;;;;;;48.97;30.47;;;;;;;0.31;75.42;101476.74;1756947;80;21155;-86
2020/12/03 00:03:53;;;;;;;50.47;28.07;;;;;;;0.36;75.26;101468.97;1744769;80;21269;-83
2020/12/03 00:06:28;;;;;;;50.63;33.23;;;;;;;0.49;75.09;101475.62;1722256;80;21135;-86
2020/12/03 00:09:03;;;;;;;39.87;25.03;;;;;;;0.46;75.22;101486.77;1692567;83;21214;-86
2020/12/03 00:11:33;;;;;;;49.97;28.63;;;;;;;0.39;75.29;101491.53;1689129;83;21340;-89
2020/12/03 00:14:02;;;;;;;49.43;29.37;;;;;;;0.35;75.37;101488.73;1683066;83;21321;-84
2020/12/03 00:16:31;;;;;;;48.23;29.73;;;;;;;0.45;75.17;101483.27;1685073;83;21702;-88
2020/12/03 00:18:58;;;;;;;52.60;30.60;;;;;;;0.46;75.00;101484.14;1687221;83;21199;-85
2020/12/03 00:24:59;;;;;;;50.07;27.70;;;;;;;0.34;75.39;101472.16;1842346;75;23119;-85
2020/12/03 00:27:26;;;;;;;48.50;29.73;;;;;;;0.33;75.30;101480.95;1809866;78;21294;-82
2020/12/03 00:29:55;;;;;;;40.23;23.73;;;;;;;0.44;74.91;101475.52;1820363;78;21136;-84
2020/12/03 00:32:25;;;;;;;49.47;29.67;;;;;;;0.46;74.89;101469.72;1775521;79;21336;-82
2020/12/03 00:34:52;;;;;;;49.20;28.33;;;;;;;0.33;75.24;101465.69;1779597;79;21194;-81
2020/12/03 00:37:19;;;;;;;50.90;27.43;;;;;;;0.23;75.56;101462.79;1771890;79;21050;-81
2020/12/03 00:39:46;;;;;;;61.63;32.33;;;;;;;0.08;76.24;101469.80;1762888;81;21188;-79
2020/12/03 00:42:15;;;;;;;41.17;24.33;;;;;;;0.08;75.99;101468.49;1735683;80;21331;-89
2020/12/03 00:44:45;;;;;;;55.20;32.13;;;;;;;0.01;76.38;101469.80;1726647;81;21166;-86
2020/12/03 00:47:15;;;;;;;51.13;27.93;;;;;;;0.04;76.20;101469.62;1707799;82;21204;-87
2020/12/03 00:49:42;;;;;;;48.37;29.80;;;;;;;-0.02;76.29;101464.28;1721571;82;22107;-88
2020/12/03 00:52:09;;;;;;;57.30;31.03;;;;;;;0.10;76.20;101467.09;1681677;82;21173;-88
2020/12/03 00:54:36;;;;;;;53.27;31.03;;;;;;;0.21;75.97;101466.42;1721064;82;21160;-88
2020/12/03 00:57:07;;;;;;;44.97;26.83;;;;;;;0.18;76.08;101458.28;1729759;82;21634;-88
2020/12/03 00:59:39;;;;;;;55.73;32.87;;;;;;;0.17;76.21;101458.77;1738002;81;21191;-88
2020/12/03 01:02:11;;;;;;;55.13;30.27;;;;;;;0.21;76.08;101443.69;1745568;81;21190;-91
2020/12/03 01:04:39;;;;;;;40.03;24.23;;;;;;;0.37;75.86;101446.20;1750335;80;21793;-92
2020/12/03 01:07:07;;;;;;;52.43;31.10;;;;;;;0.42;75.37;101453.80;1755390;80;21180;-89
2020/12/03 01:09:37;;;;;;;57.53;30.87;;;;;;;0.35;75.58;101450.69;1746108;81;21222;-89
2020/12/03 01:12:07;;;;;;;56.70;33.03;;;;;;;0.03;75.69;101405.00;1704534;82;21593;-85
2020/12/03 01:14:34;;;;;;;52.30;29.40;;;;;;;0.34;75.66;101444.61;1748374;81;21325;-84
2020/12/03 01:17:05;;;;;;;54.80;30.40;;;;;;;0.38;75.33;101443.48;1742040;81;21167;-83
2020/12/03 01:19:50;;;;;;;48.23;28.60;;;;;;;0.37;75.25;101440.47;1830724;77;23402;-82
2020/12/03 01:22:19;;;;;;;58.43;32.57;;;;;;;0.43;75.08;101444.49;1756525;80;21317;-82
2020/12/03 01:24:46;;;;;;;53.73;31.17;;;;;;;0.46;75.11;101444.79;1743160;81;21188;-83
2020/12/03 01:27:14;;;;;;;48.60;29.17;;;;;;;0.44;75.23;101442.26;1770493;79;21381;-81
2020/12/03 01:29:44;;;;;;;51.50;29.77;;;;;;;0.42;75.12;101436.27;1748328;79;22456;-85
2020/12/03 01:32:16;;;;;;;46.23;27.63;;;;;;;0.41;75.10;101439.81;1763287;79;21322;-82
2020/12/03 01:34:43;;;;;;;51.87;30.13;;;;;;;0.50;75.00;101447.11;1740933;80;21199;-84
2020/12/03 01:37:15;;;;;;;54.07;31.00;;;;;;;0.54;74.80;101436.80;1709120;80;21554;-81
2020/12/03 01:39:41;;;;;;;54.77;30.93;;;;;;;0.48;74.96;101438.50;1706525;82;21191;-82
2020/12/03 01:42:08;;;;;;;54.50;30.77;;;;;;;0.46;75.03;101439.06;1693496;82;21817;-80
2020/12/03 01:44:49;;;;;;;56.30;31.63;;;;;;;0.41;75.06;101428.02;1679667;84;21792;-82
2020/12/03 01:47:35;;;;;;;57.00;30.17;;;;;;;0.42;75.04;101431.50;1675036;84;21665;-86
2020/12/03 01:50:05;;;;;;;55.80;29.43;;;;;;;0.39;75.07;101433.34;1681441;84;21733;-86
2020/12/03 01:52:32;;;;;;;54.87;29.93;;;;;;;0.39;74.95;101433.34;1681968;84;21168;-85
2020/12/03 01:55:00;;;;;;;55.30;30.43;;;;;;;0.37;75.03;101437.02;1681860;84;21204;-85
2020/12/03 01:57:57;;;;;;;50.97;27.77;;;;;;;0.47;74.84;101440.77;1696702;84;21338;-86
2020/12/03 02:00:26;;;;;;;44.00;23.40;;;;;;;0.50;74.75;101439.72;1680869;84;21289;-85
2020/12/03 02:02:54;;;;;;;58.27;29.60;;;;;;;0.37;75.11;101435.70;1676777;84;21226;-85
2020/12/03 02:05:28;;;;;;;58.33;30.73;;;;;;;0.18;75.64;101434.69;1681380;84;21754;-85
2020/12/03 02:07:55;;;;;;;47.30;27.80;;;;;;;0.17;75.79;101432.98;1678829;83;21683;-87
2020/12/03 02:10:24;;;;;;;56.60;30.40;;;;;;;0.29;75.67;101440.59;1676976;83;21225;-87
2020/12/03 02:12:52;;;;;;;59.17;32.00;;;;;;;0.30;75.67;101439.63;1683678;83;21226;-88
2020/12/03 02:15:20;;;;;;;59.77;28.70;;;;;;;0.25;75.86;101429.92;1678749;83;21194;-85
2020/12/03 02:17:48;;;;;;;55.67;27.33;;;;;;;0.20;76.03;101436.74;1661679;84;21253;-87
2020/12/03 02:20:18;;;;;;;58.30;31.37;;;;;;;0.13;76.25;101423.19;1659582;84;21191;-86
2020/12/03 02:22:46;;;;;;;57.13;28.33;;;;;;;0.14;76.26;101432.72;1650938;84;21262;-88
2020/12/03 02:25:13;;;;;;;56.63;31.13;;;;;;;0.11;76.37;101431.58;1694810;83;21208;-87
2020/12/03 02:27:43;;;;;;;52.07;30.93;;;;;;;0.20;76.26;101434.13;1694708;83;21210;-85
2020/12/03 02:30:12;;;;;;;82.10;36.83;;;;;;;0.30;75.98;101445.75;1685382;84;21159;-87
2020/12/03 02:32:42;;;;;;;49.63;23.33;;;;;;;0.29;75.93;101441.42;1663476;84;21222;-82
2020/12/03 02:35:12;;;;;;;49.80;29.40;;;;;;;0.27;76.08;101441.16;1669057;84;22216;-83
2020/12/03 02:37:41;;;;;;;51.70;27.23;;;;;;;0.26;75.94;101434.21;1657649;85;21192;-84
2020/12/03 02:40:10;;;;;;;53.63;27.93;;;;;;;0.26;75.76;101432.91;1656982;85;21822;-84
2020/12/03 02:42:38;;;;;;;46.97;29.20;;;;;;;0.23;75.90;101431.77;1672038;84;21248;-86
2020/12/03 02:45:05;;;;;;;48.80;26.93;;;;;;;0.35;75.78;101436.27;1679257;84;21242;-86
2020/12/03 02:47:33;;;;;;;48.97;27.33;;;;;;;0.38;75.42;101430.37;1681533;84;21195;-86
2020/12/03 02:50:01;;;;;;;38.30;21.53;;;;;;;0.31;75.36;101435.61;1647083;85;21364;-87
2020/12/03 02:52:28;;;;;;;42.70;24.97;;;;;;;0.21;75.44;101438.89;1636397;85;21245;-84
2020/12/03 02:54:55;;;;;;;48.73;28.57;;;;;;;0.12;75.53;101429.35;1682017;84;21801;-84
2020/12/03 02:57:22;;;;;;;47.70;27.77;;;;;;;0.21;75.54;101433.64;1691539;84;21240;-85
2020/12/03 02:59:49;;;;;;;42.67;23.93;;;;;;;0.24;75.43;101434.78;1652792;85;21206;-85
2020/12/03 03:02:18;;;;;;;47.30;26.80;;;;;;;0.19;75.35;101435.91;1651808;85;21210;-83
2020/12/03 03:04:45;;;;;;;48.63;27.77;;;;;;;0.10;75.41;101435.64;1650104;85;21249;-80
2020/12/03 03:07:11;;;;;;;39.10;22.33;;;;;;;0.09;75.38;101430.84;1640555;84;21088;-79
2020/12/03 03:09:38;;;;;;;54.30;29.90;;;;;;;0.09;75.32;101437.39;1646249;85;21234;-78
2020/12/03 03:12:05;;;;;;;;;;;;;;;0.09;75.29;101432.15;1652945;85;21229;-85
2020/12/03 03:14:33;;;;;;;49.95;28.05;;;;;;;0.08;75.26;101423.09;1682227;84;20203;-86
2020/12/03 03:17:00;;;;;;;48.80;27.40;;;;;;;-0.07;75.66;101431.41;1656928;85;21770;-82
2020/12/03 03:19:26;;;;;;;;;;;;;;;-0.08;75.58;101437.10;1682889;83;21633;-82
2020/12/03 03:21:54;;;;;;;38.50;23.32;;;;;;;-0.16;75.73;101433.28;1672704;84;20222;-81
2020/12/03 03:24:21;;;;;;;35.10;19.60;;;;;;;-0.13;75.73;101435.69;1652654;85;21200;-83
2020/12/03 03:26:48;;;;;;;38.10;24.90;;;;;;;-0.08;75.67;101434.95;1657264;84;21342;-83
2020/12/03 03:29:15;;;;;;;49.00;27.50;;;;;;;-0.38;76.00;101404.41;1643360;85;21353;-83
2020/12/03 03:31:42;;;;;;;50.90;29.47;;;;;;;-0.25;76.23;101442.05;1645686;85;21212;-85
2020/12/03 03:34:11;;;;;;;39.20;21.90;;;;;;;-0.17;76.18;101426.34;1653789;85;21342;-80
2020/12/03 03:36:40;;;;;;;36.97;21.97;;;;;;;-0.18;76.25;101433.84;1688485;82;22137;-81
2020/12/03 03:39:06;;;;;;;;;;;;;;;-0.14;76.07;101429.62;1709511;83;21781;-82
2020/12/03 03:41:35;;;;;;;41.03;24.77;;;;;;;-0.18;76.19;101424.19;1672355;84;20197;-81
2020/12/03 03:44:02;;;;;;;42.73;24.83;;;;;;;-0.18;76.22;101422.88;1697936;83;21225;-81
2020/12/03 03:46:29;;;;;;;42.37;25.57;;;;;;;-0.17;76.10;101428.95;1697878;82;21175;-80
2020/12/03 03:48:56;;;;;;;42.27;24.63;;;;;;;-0.05;75.65;101431.69;1699443;82;21168;-81
2020/12/03 03:51:24;;;;;;;50.30;28.13;;;;;;;-0.02;75.34;101442.44;1704570;82;22339;-82
2020/12/03 03:53:50;;;;;;;;;;;;;;;-0.09;75.43;101434.59;1705304;82;21222;-81
2020/12/03 03:56:18;;;;;;;41.37;24.47;;;;;;;-0.11;75.46;101437.78;1704868;82;20211;-81
2020/12/03 03:58:46;;;;;;;43.50;25.37;;;;;;;-0.13;75.35;101427.39;1694343;82;21188;-83
2020/12/03 04:01:13;;;;;;;46.87;25.70;;;;;;;-0.17;75.40;101435.06;1699657;83;21260;-81
2020/12/03 04:03:39;;;;;;;;;;;;;;;-0.16;75.35;101432.80;1682359;84;21344;-82
2020/12/03 04:06:06;;;;;;;43.67;23.70;;;;;;;-0.20;75.38;101421.66;1675968;84;20187;-80
2020/12/03 04:11:05;;;;;;;31.10;17.37;;;;;;;-0.24;75.51;101412.30;1816985;77;22906;-79
2020/12/03 04:13:33;;;;;;;43.23;24.00;;;;;;;-0.32;75.69;101421.54;1747147;80;21238;-78
2020/12/03 04:16:00;;;;;;;47.00;26.47;;;;;;;-0.30;75.74;101419.67;1774958;80;21199;-80
2020/12/03 04:18:27;;;;;;;;;;;;;;;-0.24;75.54;101420.63;1766328;81;21192;-78
2020/12/03 04:20:58;;;;;;;45.07;26.13;;;;;;;-0.27;75.67;101419.50;1749549;81;20210;-81
2020/12/03 04:23:25;;;;;;;35.37;24.30;;;;;;;-0.31;75.92;101418.83;1769588;81;21613;-78
2020/12/03 04:25:51;;;;;;;40.80;23.90;;;;;;;-0.28;75.83;101418.66;1766951;81;21195;-81
2020/12/03 04:28:19;;;;;;;46.80;26.20;;;;;;;-0.15;75.41;101419.22;1756881;80;21413;-79
2020/12/03 04:30:47;;;;;;;47.03;26.87;;;;;;;-0.17;75.33;101417.16;1766121;81;21554;-81
2020/12/03 04:33:14;;;;;;;47.37;29.10;;;;;;;-0.21;75.23;101418.67;1754201;81;21220;-78
2020/12/03 04:35:41;;;;;;;45.63;26.07;;;;;;;-0.23;75.49;101417.93;1758034;81;21097;-80
2020/12/03 04:38:09;;;;;;;41.70;24.77;;;;;;;-0.19;75.33;101427.73;1751520;81;21182;-82
2020/12/03 04:40:39;;;;;;;44.37;25.50;;;;;;;-0.17;75.25;101432.89;1755620;81;22515;-80
2020/12/03 04:43:30;;;;;;;41.37;24.73;;;;;;;-0.21;75.17;101437.02;1721318;82;21597;-78
2020/12/03 04:46:27;;;;;;;53.20;30.87;;;;;;;-0.23;75.25;101431.47;1733279;82;21348;-80
2020/12/03 04:49:32;;;;;;;45.93;24.57;;;;;;;-0.21;75.25;101428.30;1716813;82;21123;-79
2020/12/03 04:52:35;;;;;;;48.20;27.03;;;;;;;-0.30;75.60;101429.70;1712967;83;21185;-78
2020/12/03 04:55:15;;;;;;;38.97;24.00;;;;;;;-0.27;75.70;101432.59;1702718;82;21191;-82
2020/12/03 04:58:11;;;;;;;45.30;27.97;;;;;;;-0.18;75.55;101434.67;1706096;83;21215;-81
2020/12/03 05:00:49;;;;;;;45.87;25.60;;;;;;;-0.21;75.68;101432.22;1738176;82;21150;-81
2020/12/03 05:03:36;;;;;;;44.73;28.47;;;;;;;-0.27;75.77;101428.19;1707656;83;21371;-82
2020/12/03 05:06:35;;;;;;;41.48;25.27;;;;;;;-0.23;75.84;101426.23;1690513;83;21113;-81
2020/12/03 05:09:22;;;;;;;46.87;27.83;;;;;;;-0.22;76.02;101430.08;1716338;82;21303;-79
2020/12/03 05:12:00;;;;;;;43.93;25.10;;;;;;;-0.21;75.88;101429.61;1717465;83;21173;-82
2020/12/03 05:14:51;;;;;;;42.87;25.03;;;;;;;-0.22;75.81;101431.39;1683835;85;21224;-82
2020/12/03 05:17:42;;;;;;;42.67;23.37;;;;;;;-0.22;75.82;101435.80;1689007;83;21634;-83
2020/12/03 05:20:43;;;;;;;41.90;26.10;;;;;;;-0.09;75.84;101430.67;1819290;77;22914;-79
2020/12/03 05:23:19;;;;;;;45.77;26.00;;;;;;;-0.14;75.81;101432.23;1810222;78;22241;-83
2020/12/03 05:25:53;;;;;;;46.87;24.97;;;;;;;-0.18;75.99;101431.22;1819571;78;21141;-81
2020/12/03 05:28:52;;;;;;;41.50;25.90;;;;;;;-0.17;76.15;101428.95;1815103;78;21164;-80
2020/12/03 05:31:33;;;;;;;47.57;26.40;;;;;;;-0.10;76.01;101427.18;1795287;78;22035;-81
2020/12/03 05:34:22;;;;;;;48.47;27.23;;;;;;;-0.12;76.04;101434.30;1813622;78;21148;-83
2020/12/03 05:36:59;;;;;;;46.20;26.43;;;;;;;-0.01;75.75;101433.66;1791465;78;21621;-83
2020/12/03 05:39:33;;;;;;;46.57;26.67;;;;;;;0.02;75.71;101440.03;1791087;78;21164;-80
2020/12/03 05:42:07;;;;;;;46.43;25.53;;;;;;;-0.03;75.83;101438.16;1746176;80;21221;-81
2020/12/03 05:44:56;;;;;;;42.33;23.77;;;;;;;-0.04;75.87;101445.62;1763599;80;21191;-80
2020/12/03 05:47:33;;;;;;;49.43;28.70;;;;;;;-0.01;75.80;101443.66;1757327;80;21214;-82
2020/12/03 05:50:15;;;;;;;48.47;28.80;;;;;;;-0.01;75.69;101450.22;1774464;80;21329;-80
2020/12/03 05:52:41;;;;;;;41.10;26.67;;;;;;;0.01;75.77;101444.05;1760561;80;21199;-80
2020/12/03 05:55:13;;;;;;;42.17;24.27;;;;;;;0.16;75.51;101445.27;1763538;80;21168;-79
2020/12/03 05:57:43;;;;;;;43.50;23.57;;;;;;;0.07;75.39;101451.06;1762295;80;21312;-83
2020/12/03 06:00:18;;;;;;;41.20;25.47;;;;;;;-0.15;75.79;101447.61;1756164;78;21198;-79
2020/12/03 06:03:18;;;;;;;44.43;24.80;;;;;;;-0.26;76.44;101456.57;1769761;80;21168;-81
2020/12/03 06:06:00;;;;;;;50.23;27.43;;;;;;;-0.24;76.47;101448.98;1746534;80;21040;-80
2020/12/03 06:08:58;;;;;;;38.70;25.33;;;;;;;-0.28;76.84;101451.41;1762925;80;21166;-81
2020/12/03 06:12:04;;;;;;;39.65;21.65;;;;;;;-0.18;76.90;101451.70;1765809;80;21256;-80
2020/12/03 06:15:15;;;;;;;53.00;34.70;;;;;;;-0.05;76.50;101442.17;1797932;77;38469;-80
2020/12/03 06:18:12;;;;;;;41.40;25.37;;;;;;;0.12;76.09;101437.69;1826430;78;21283;-78
2020/12/03 06:21:15;;;;;;;50.23;25.67;;;;;;;0.30;75.59;101438.33;1817052;78;21168;-83
2020/12/03 06:24:12;;;;;;;51.37;25.93;;;;;;;0.33;75.47;101442.91;1796087;78;21195;-83
2020/12/03 06:27:11;;;;;;;40.83;26.13;;;;;;;0.28;75.71;101440.20;1753971;79;22094;-82
2020/12/03 06:30:05;;;;;;;34.53;21.83;;;;;;;0.22;75.57;101443.21;1738686;81;21159;-84
2020/12/03 06:33:17;;;;;;;40.60;24.17;;;;;;;0.11;75.77;101446.00;1766518;81;21669;-84
2020/12/03 06:35:57;;;;;;;40.90;25.63;;;;;;;0.04;75.92;101451.27;1740593;81;21218;-85
2020/12/03 06:38:35;;;;;;;41.40;25.27;;;;;;;-0.08;76.24;101446.75;1706079;83;21741;-83
2020/12/03 06:41:40;;;;;;;40.80;25.50;;;;;;;-0.11;76.43;101451.72;1691731;82;21243;-81
2020/12/03 06:44:41;;;;;;;42.40;25.00;;;;;;;-0.05;76.21;101449.20;1688323;83;21200;-80
2020/12/03 06:47:31;;;;;;;41.47;23.20;;;;;;;-0.06;76.12;101447.05;1714699;82;21637;-82
2020/12/03 06:50:25;;;;;;;41.07;24.63;;;;;;;-0.02;75.88;101449.00;1816891;77;22957;-80
2020/12/03 06:53:10;;;;;;;46.17;28.40;;;;;;;-0.10;75.93;101444.22;1803225;78;21309;-78
2020/12/03 06:55:58;;;;;;;36.70;20.93;;;;;;;-0.16;76.22;101455.55;1813329;78;21180;-78
2020/12/03 06:58:54;;;;;;;44.42;24.52;;;;;;;-0.11;76.38;101451.72;1819392;78;21167;-85
2020/12/03 07:02:04;;;;;;;41.93;24.47;;;;;;;-0.11;76.20;101455.66;1786417;80;21188;-79
2020/12/03 07:05:03;;;;;;;41.60;23.05;;;;;;;-0.20;76.03;101441.78;1784036;80;21757;-77
2020/12/03 07:08:02;;;;;;;39.27;24.73;;;;;;;-0.20;76.07;101453.58;1734162;80;21171;-80
2020/12/03 07:11:08;;;;;;;42.73;23.55;;;;;;;-0.08;75.80;101451.52;1780290;80;22155;-76
2020/12/03 07:14:26;;;;;;;41.57;23.50;;;;;;;-0.07;75.92;101451.07;1764137;80;21316;-76
2020/12/03 07:17:25;;;;;;;44.07;26.67;;;;;;;-0.23;76.38;101452.44;1746992;81;21310;-75
2020/12/03 07:20:33;;;;;;;47.60;26.87;;;;;;;-0.24;76.67;101453.39;1733761;82;21207;-75
2020/12/03 07:23:05;;;;;;;44.77;24.50;;;;;;;-0.22;76.92;101458.07;1728590;82;21197;-77
2020/12/03 07:25:34;;;;;;;54.13;30.43;;;;;;;-0.15;76.29;101450.23;1719559;82;21225;-76
2020/12/03 07:28:04;;;;;;;;;;;;;;;-0.14;76.26;101465.00;1739551;82;21263;-76
2020/12/03 07:30:51;;;;;;;38.43;19.87;;;;;;;-0.06;75.94;101461.91;1737384;82;20532;-77
2020/12/03 07:33:51;;;;;;;41.00;20.07;;;;;;;-0.17;75.93;101464.33;1756022;81;21179;-76
2020/12/03 07:36:38;;;;;;;49.63;29.63;;;;;;;-0.19;75.96;101459.17;1696917;82;21112;-79
2020/12/03 07:39:16;;;;;;;56.00;32.17;;;;;;;-0.17;76.02;101459.95;1680124;84;21233;-75
2020/12/03 07:41:56;;;;;;;67.70;34.00;;;;;;;-0.07;75.90;101463.70;1680749;85;21610;-78
2020/12/03 07:44:33;;;;;;;49.53;23.30;;;;;;;-0.08;75.91;101458.55;1680491;84;21244;-78
2020/12/03 07:47:33;;;;;;;56.75;27.98;;;;;;;-0.13;76.00;101464.52;1681032;84;21227;-86
2020/12/03 07:52:39;;;;;;;52.53;28.67;;;;;;;-0.21;76.18;101462.36;1815100;77;23725;-84
2020/12/03 07:55:27;;;;;;;78.97;36.17;;;;;;;-0.25;76.07;101469.55;1751096;81;21172;-83
2020/12/03 07:57:59;;;;;;;60.05;31.87;;;;;;;-0.24;76.22;101470.42;1766897;81;21128;-75
2020/12/03 08:00:44;;;;;;;73.10;34.83;;;;;;;-0.23;76.25;101465.54;1742127;81;21601;-79
2020/12/03 08:03:39;;;;;;;53.77;31.77;;;;;;;-0.22;76.10;101465.45;1750706;81;21801;-83
2020/12/03 08:06:22;;;;;;;58.40;34.27;;;;;;;-0.23;76.45;101460.30;1714748;81;21527;-77
2020/12/03 08:09:07;;;;;;;48.40;25.97;;;;;;;-0.24;76.37;101469.95;1738427;81;21188;-77
2020/12/03 08:12:02;;;;;;;52.97;31.17;;;;;;;-0.17;76.36;101465.20;1710420;81;21325;-78
2020/12/03 08:14:47;;;;;;;46.30;26.50;;;;;;;-0.19;76.11;101460.48;1648676;86;21289;-77
2020/12/03 08:17:22;;;;;;;58.00;30.33;;;;;;;-0.31;76.48;101462.06;1631724;86;21284;-78
2020/12/03 08:20:10;;;;;;;52.30;28.77;;;;;;;-0.28;76.63;101459.75;1680694;82;21168;-80
2020/12/03 08:22:42;;;;;;;65.55;30.90;;;;;;;-0.33;76.67;101452.14;1728216;82;21144;-79
2020/12/03 08:25:15;;;;;;;58.47;33.27;;;;;;;-0.35;76.70;101453.18;1720760;82;21167;-78
2020/12/03 08:27:42;;;;;;;46.30;27.13;;;;;;;-0.33;76.82;101454.77;1732463;82;21179;-77
2020/12/03 08:30:38;;;;;;;;;;;;;;;-0.26;76.51;101443.47;1721343;81;21211;-79
2020/12/03 08:36:05;;;;;;;71.72;48.38;;;;;;;-0.31;77.05;101450.75;1728847;79;28292;-77
2020/12/03 08:38:35;;;;;;;59.87;35.40;;;;;;;-0.06;76.43;101441.81;1654062;85;21354;-77
2020/12/03 08:43:43;;;;;;;57.53;42.50;;;;;;;0.36;75.36;101430.10;1811107;77;28765;-80
2020/12/03 08:46:15;;;;;;;50.70;32.63;;;;;;;0.54;74.36;101435.48;1808007;78;21624;-78
2020/12/03 08:48:40;;;;;;;54.40;33.20;;;;;;;0.53;73.66;101437.75;1817819;78;21286;-79
2020/12/03 08:51:10;;;;;;;50.27;31.97;;;;;;;0.35;74.11;101429.71;1785788;79;21160;-75
2020/12/03 08:53:40;;;;;;;51.47;32.27;;;;;;;0.37;74.45;101429.98;1745422;80;21226;-77
2020/12/03 08:56:27;;;;;;;52.37;28.03;;;;;;;0.32;74.62;101425.95;1727490;81;21705;-77
2020/12/03 08:59:15;;;;;;;66.70;35.93;;;;;;;0.27;74.55;101417.08;1752396;81;21183;-77
2020/12/03 09:01:45;;;;;;;53.10;32.73;;;;;;;0.25;74.80;101418.95;1731832;81;21347;-78
2020/12/03 09:04:17;;;;;;;60.23;35.43;;;;;;;0.34;74.45;101405.27;1732027;81;21180;-77
2020/12/03 09:06:50;;;;;;;56.13;33.57;;;;;;;0.32;74.45;101407.59;1696843;81;21124;-77
2020/12/03 09:09:20;;;;;;;50.33;27.10;;;;;;;0.25;74.65;101398.45;1688542;83;21181;-78
2020/12/03 09:12:19;;;;;;;68.07;39.93;;;;;;;0.31;74.92;101394.96;1794578;78;23100;-77
2020/12/03 09:14:49;;;;;;;59.97;35.30;;;;;;;0.25;74.90;101399.28;1768826;80;21234;-83
2020/12/03 09:17:18;;;;;;;58.60;34.50;;;;;;;0.32;74.90;101397.11;1779673;80;21737;-81
2020/12/03 09:19:46;;;;;;;61.70;39.77;;;;;;;0.43;74.49;101399.90;1777133;79;21203;-81
2020/12/03 09:22:13;;;;;;;65.23;35.77;;;;;;;0.42;74.45;101388.22;1789269;80;21228;-85
2020/12/03 09:24:40;;;;;;;60.50;36.97;;;;;;;0.38;74.61;101387.56;1784984;80;21739;-81
2020/12/03 09:27:08;;;;;;;;;;;;;;;0.37;74.51;101397.67;1778659;80;21152;-79
2020/12/03 09:29:35;;;;;;;67.40;37.37;;;;;;;0.40;74.31;101397.48;1780590;80;20162;-83
2020/12/03 09:32:08;;;;;;;69.47;37.17;;;;;;;0.32;74.30;101386.62;1781267;80;21599;-82
2020/12/03 09:34:37;;;;;;;66.90;34.47;;;;;;;0.26;74.69;101387.01;1754406;79;22134;-82
2020/12/03 09:37:24;;;;;;;58.73;32.00;;;;;;;0.22;74.71;101396.84;1700180;82;21175;-81
2020/12/03 09:40:07;;;;;;;63.63;35.90;;;;;;;0.32;74.42;101391.86;1683837;82;21263;-81
2020/12/03 09:43:28;;;;;;;46.80;27.07;;;;;;;0.32;74.62;101380.06;1872830;75;27194;-79
2020/12/03 09:45:57;;;;;;;67.33;33.53;;;;;;;0.19;74.86;101372.98;1830057;77;21304;-81
2020/12/03 09:48:40;;;;;;;55.38;28.27;;;;;;;0.18;75.20;101384.39;1810849;77;21164;-82
2020/12/03 09:54:18;;;;;;;68.33;38.67;;;;;;;0.18;75.36;101372.59;1871232;75;25413;-83
2020/12/03 09:56:53;;;;;;;61.53;35.90;;;;;;;0.17;75.35;101380.55;1768030;80;21177;-82
2020/12/03 09:59:28;;;;;;;51.73;26.43;;;;;;;0.22;75.49;101382.90;1795924;77;22697;-81
2020/12/03 10:02:53;;;;;;;77.13;36.70;;;;;;;0.21;75.48;101391.24;1769284;80;21192;-81
2020/12/03 10:06:15;;;;;;;72.53;34.63;;;;;;;0.29;75.03;101385.52;1736820;80;21255;-85
2020/12/03 10:09:25;;;;;;;64.70;32.37;;;;;;;0.27;74.77;101383.47;1730951;81;21640;-82
2020/12/03 10:12:27;;;;;;;50.87;27.43;;;;;;;0.15;75.23;101381.11;1701910;81;21208;-84
2020/12/03 10:16:05;;;;;;;51.40;29.07;;;;;;;0.23;75.38;101371.45;1800128;77;27039;-80
2020/12/03 10:18:52;;;;;;;55.88;32.35;;;;;;;0.11;75.70;101374.38;1787045;78;21301;-83
2020/12/03 10:22:22;;;;;;;42.80;25.97;;;;;;;0.24;75.42;101356.11;1873739;75;24401;-84
2020/12/03 10:24:59;;;;;;;49.80;27.13;;;;;;;0.15;75.67;101361.00;1830287;77;21310;-85
2020/12/03 10:27:33;;;;;;;53.53;29.87;;;;;;;0.02;75.99;101356.15;1816325;77;21179;-81
2020/12/03 10:30:07;;;;;;;62.13;33.97;;;;;;;0.09;76.10;101354.81;1816529;77;21231;-83
2020/12/03 10:32:37;;;;;;;60.43;33.57;;;;;;;0.18;76.08;101358.17;1804246;78;21286;-83
2020/12/03 10:35:05;;;;;;;69.20;34.87;;;;;;;0.18;76.23;101356.86;1806578;78;21634;-82
2020/12/03 10:37:36;;;;;;;80.70;40.00;;;;;;;0.20;76.17;101356.77;1800305;78;21226;-83
2020/12/03 10:40:11;;;;;;;51.40;27.07;;;;;;;0.29;76.04;101355.36;1758453;79;21187;-82
2020/12/03 10:42:40;;;;;;;52.37;30.73;;;;;;;0.45;75.44;101354.73;1762338;80;21170;-84
2020/12/03 10:45:13;;;;;;;57.30;33.43;;;;;;;0.41;74.87;101358.50;1747447;80;21311;-81
2020/12/03 10:47:53;;;;;;;53.73;32.70;;;;;;;0.26;75.42;101355.06;1751599;80;21661;-83
2020/12/03 10:50:21;;;;;;;53.20;30.10;;;;;;;0.19;75.83;101352.00;1720912;81;21171;-82
2020/12/03 10:52:48;;;;;;;53.90;31.53;;;;;;;0.23;75.79;101347.41;1754456;80;21171;-85
2020/12/03 10:55:18;;;;;;;;;;;;;;;0.22;75.98;101358.83;1739465;79;22138;-82
2020/12/03 10:57:57;;;;;;;59.57;33.37;;;;;;;0.34;75.47;101351.50;1755431;80;20655;-82
2020/12/03 11:00:21;;;;;;;57.60;31.77;;;;;;;0.30;75.35;101343.91;1750064;80;21214;-82
2020/12/03 11:02:48;;;;;;;56.80;32.53;;;;;;;0.18;75.65;101342.44;1761407;80;21184;-83
2020/12/03 11:05:16;;;;;;;50.80;29.97;;;;;;;0.11;75.81;101329.33;1751933;80;21341;-83
2020/12/03 11:07:57;;;;;;;72.10;38.50;;;;;;;0.15;76.13;101332.61;1747191;80;21175;-88
2020/12/03 11:10:26;;;;;;;73.00;38.50;;;;;;;0.10;76.41;101334.70;1749939;80;21179;-83
2020/12/03 11:12:52;;;;;;;;;;;;;;;0.14;76.25;101333.56;1747110;80;21232;-81
2020/12/03 11:15:21;;;;;;;80.83;40.70;;;;;;;0.11;76.35;101334.58;1771077;80;20175;-80
2020/12/03 11:17:55;;;;;;;64.33;33.93;;;;;;;0.06;76.58;101346.29;1743617;80;21220;-84
2020/12/03 11:20:24;;;;;;;76.23;37.37;;;;;;;0.10;76.41;101343.88;1709645;81;21302;-84
2020/12/03 11:23:22;;;;;;;78.57;37.90;;;;;;;0.27;76.09;101341.50;1648694;84;21188;-81
2020/12/03 11:25:51;;;;;;;65.40;30.40;;;;;;;0.29;75.76;101338.31;1687508;83;21255;-88
2020/12/03 11:28:38;;;;;;;76.73;36.03;;;;;;;0.10;76.38;101343.40;1738218;80;21222;-83
2020/12/03 11:31:08;;;;;;;76.93;39.03;;;;;;;-0.02;76.89;101336.28;1740010;80;21724;-83
2020/12/03 11:36:16;;;;;;;68.27;35.80;;;;;;;0.15;76.61;101328.23;1744860;79;23049;-83
2020/12/03 11:38:51;;;;;;;50.47;29.67;;;;;;;0.01;77.13;101333.48;1671615;83;21226;-84
2020/12/03 11:48:57;;;;;;;74.13;39.33;;;;;;;-0.01;77.39;101327.50;1664944;84;21220;-82
2020/12/03 11:51:33;;;;;;;86.43;43.43;;;;;;;0.03;77.39;101334.23;1669727;84;21489;-84
2020/12/03 11:54:07;;;;;;;90.97;42.20;;;;;;;0.19;77.20;101327.57;1666484;85;21711;-83
2020/12/03 11:56:37;;;;;;;79.40;37.50;;;;;;;0.24;76.98;101325.95;1660950;85;21629;-94
2020/12/03 11:59:18;;;;;;;79.67;37.30;;;;;;;0.25;76.90;101314.54;1670930;85;21465;-85
2020/12/03 12:02:06;;;;;;;88.43;38.43;;;;;;;0.24;76.96;101316.30;1656847;85;21210;-88
2020/12/03 12:04:53;;;;;;;92.10;40.10;;;;;;;0.33;76.59;101317.50;1662874;85;21350;-92
2020/12/03 12:21:00;;;;;;;72.77;36.67;;;;;;;0.12;76.64;101315.78;1810454;75;22962;-88
2020/12/03 12:23:28;;;;;;;66.03;32.93;;;;;;;0.02;76.96;101326.01;1781125;78;21944;-90
2020/12/03 12:26:05;;;;;;;73.93;34.77;;;;;;;0.12;77.04;101312.68;1758261;79;23257;-91
2020/12/03 12:28:33;;;;;;;59.27;33.27;;;;;;;0.14;76.88;101325.70;1744002;82;21318;-93
2020/12/03 12:31:00;;;;;;;67.50;35.33;;;;;;;0.21;76.52;101322.20;1733038;81;21145;-92
2020/12/03 12:33:27;;;;;;;72.43;38.77;;;;;;;0.18;76.67;101320.63;1735440;82;21192;-90
2020/12/03 12:35:55;;;;;;;67.43;37.20;;;;;;;0.08;76.87;101316.44;1724630;82;21741;-90
2020/12/03 12:38:23;;;;;;;65.90;35.40;;;;;;;0.09;76.96;101315.96;1697247;83;21629;-89
2020/12/03 12:40:50;;;;;;;66.37;36.70;;;;;;;0.14;76.69;101309.48;1655706;85;21234;-92
2020/12/03 12:43:17;;;;;;;71.73;35.30;;;;;;;0.12;76.89;101300.05;1655687;85;21335;-93